sensor_id;sensor_type;location;lat;lon;timestamp;P1;durP1;ratioP1;P2;durP2;ratioP2
10315;SDS011;5203;48.976;8.306;2023-04-05T00:01:30;7.07;;;5.27;;
10315;SDS011;5203;48.976;8.306;2023-04-05T00:03:57;7.10;;;5.13;;
10315;SDS011;5203;48.976;8.306;2023-04-05T00:06:24;6.37;;;5.77;;
10315;SDS011;5203;48.976;8.306;2023-04-05T00:08:56;6.23;;;5.27;;
10315;SDS011;5203;48.976;8.306;2023-04-05T00:11:28;5.93;;;5.23;;
10315;SDS011;5203;48.976;8.306;2023-04-05T00:13:58;7.07;;;5.30;;
10315;SDS011;5203;48.976;8.306;2023-04-05T00:16:25;6.77;;;5.20;;
10315;SDS011;5203;48.976;8.306;2023-04-05T00:18:52;8.77;;;4.77;;
10315;SDS011;5203;48.976;8.306;2023-04-05T00:21:18;6.10;;;5.50;;
10315;SDS011;5203;48.976;8.306;2023-04-05T00:23:48;6.03;;;5.40;;
10315;SDS011;5203;48.976;8.306;2023-04-05T00:26:15;8.13;;;6.00;;
10315;SDS011;5203;48.976;8.306;2023-04-05T00:28:41;6.53;;;5.67;;
10315;SDS011;5203;48.976;8.306;2023-04-05T00:31:07;6.53;;;5.93;;
10315;SDS011;5203;48.976;8.306;2023-04-05T00:33:33;6.50;;;5.93;;
10315;SDS011;5203;48.976;8.306;2023-04-05T00:38:36;7.60;;;5.67;;
10315;SDS011;5203;48.976;8.306;2023-04-05T00:41:02;6.77;;;5.77;;
10315;SDS011;5203;48.976;8.306;2023-04-05T00:43:28;7.60;;;5.47;;
10315;SDS011;5203;48.976;8.306;2023-04-05T00:45:54;6.40;;;5.83;;
10315;SDS011;5203;48.976;8.306;2023-04-05T00:48:20;5.97;;;5.40;;
10315;SDS011;5203;48.976;8.306;2023-04-05T00:50:47;5.93;;;5.40;;
10315;SDS011;5203;48.976;8.306;2023-04-05T00:53:15;6.13;;;5.53;;
10315;SDS011;5203;48.976;8.306;2023-04-05T00:55:42;6.87;;;6.17;;
10315;SDS011;5203;48.976;8.306;2023-04-05T00:58:08;6.30;;;5.70;;
10315;SDS011;5203;48.976;8.306;2023-04-05T01:00:35;6.63;;;5.90;;
10315;SDS011;5203;48.976;8.306;2023-04-05T01:03:02;6.53;;;5.77;;
10315;SDS011;5203;48.976;8.306;2023-04-05T01:05:34;7.30;;;5.73;;
10315;SDS011;5203;48.976;8.306;2023-04-05T01:08:15;6.10;;;5.60;;
10315;SDS011;5203;48.976;8.306;2023-04-05T01:11:02;6.70;;;5.93;;
10315;SDS011;5203;48.976;8.306;2023-04-05T01:13:30;9.10;;;6.20;;
10315;SDS011;5203;48.976;8.306;2023-04-05T01:15:56;8.10;;;5.80;;
10315;SDS011;5203;48.976;8.306;2023-04-05T01:18:22;5.80;;;5.27;;
10315;SDS011;5203;48.976;8.306;2023-04-05T01:20:51;6.03;;;5.47;;
10315;SDS011;5203;48.976;8.306;2023-04-05T01:28:58;6.30;;;5.70;;
10315;SDS011;5203;48.976;8.306;2023-04-05T01:37:22;6.10;;;5.40;;
10315;SDS011;5203;48.976;8.306;2023-04-05T01:39:51;6.50;;;5.60;;
10315;SDS011;5203;48.976;8.306;2023-04-05T01:42:21;6.77;;;5.10;;
10315;SDS011;5203;48.976;8.306;2023-04-05T01:44:49;6.13;;;5.30;;
10315;SDS011;5203;48.976;8.306;2023-04-05T01:47:17;7.70;;;5.60;;
10315;SDS011;5203;48.976;8.306;2023-04-05T01:49:42;6.13;;;5.50;;
10315;SDS011;5203;48.976;8.306;2023-04-05T01:52:08;6.97;;;5.60;;
10315;SDS011;5203;48.976;8.306;2023-04-05T01:54:33;6.37;;;5.23;;
10315;SDS011;5203;48.976;8.306;2023-04-05T01:56:59;6.23;;;5.60;;
10315;SDS011;5203;48.976;8.306;2023-04-05T01:59:25;9.43;;;6.30;;
10315;SDS011;5203;48.976;8.306;2023-04-05T02:01:51;6.40;;;5.50;;
10315;SDS011;5203;48.976;8.306;2023-04-05T02:04:16;5.67;;;5.03;;
10315;SDS011;5203;48.976;8.306;2023-04-05T02:06:42;6.03;;;5.53;;
10315;SDS011;5203;48.976;8.306;2023-04-05T02:09:07;6.60;;;5.57;;
10315;SDS011;5203;48.976;8.306;2023-04-05T02:11:33;7.13;;;5.63;;
10315;SDS011;5203;48.976;8.306;2023-04-05T02:13:59;6.87;;;5.57;;
10315;SDS011;5203;48.976;8.306;2023-04-05T02:16:24;6.37;;;5.77;;
10315;SDS011;5203;48.976;8.306;2023-04-05T02:18:51;7.10;;;6.27;;
10315;SDS011;5203;48.976;8.306;2023-04-05T02:21:21;6.23;;;5.27;;
10315;SDS011;5203;48.976;8.306;2023-04-05T02:23:47;6.40;;;5.57;;
10315;SDS011;5203;48.976;8.306;2023-04-05T02:26:14;6.00;;;5.40;;
10315;SDS011;5203;48.976;8.306;2023-04-05T02:28:40;6.67;;;5.70;;
10315;SDS011;5203;48.976;8.306;2023-04-05T02:31:09;7.67;;;5.77;;
10315;SDS011;5203;48.976;8.306;2023-04-05T02:33:36;6.57;;;5.93;;
10315;SDS011;5203;48.976;8.306;2023-04-05T02:36:03;6.73;;;6.03;;
10315;SDS011;5203;48.976;8.306;2023-04-05T02:38:31;6.37;;;5.73;;
10315;SDS011;5203;48.976;8.306;2023-04-05T02:40:57;6.87;;;6.17;;
10315;SDS011;5203;48.976;8.306;2023-04-05T02:43:23;5.87;;;5.33;;
10315;SDS011;5203;48.976;8.306;2023-04-05T02:45:49;6.20;;;5.50;;
10315;SDS011;5203;48.976;8.306;2023-04-05T02:48:15;7.33;;;6.33;;
10315;SDS011;5203;48.976;8.306;2023-04-05T02:50:41;6.57;;;5.97;;
10315;SDS011;5203;48.976;8.306;2023-04-05T02:53:11;6.53;;;5.93;;
10315;SDS011;5203;48.976;8.306;2023-04-05T02:55:37;6.33;;;5.73;;
10315;SDS011;5203;48.976;8.306;2023-04-05T02:58:06;6.47;;;5.87;;
10315;SDS011;5203;48.976;8.306;2023-04-05T03:00:31;6.40;;;5.53;;
10315;SDS011;5203;48.976;8.306;2023-04-05T03:02:57;6.47;;;5.60;;
10315;SDS011;5203;48.976;8.306;2023-04-05T03:05:23;6.00;;;5.43;;
10315;SDS011;5203;48.976;8.306;2023-04-05T03:07:49;6.70;;;6.10;;
10315;SDS011;5203;48.976;8.306;2023-04-05T03:10:15;6.50;;;5.40;;
10315;SDS011;5203;48.976;8.306;2023-04-05T03:12:46;7.43;;;6.10;;
10315;SDS011;5203;48.976;8.306;2023-04-05T03:15:12;5.83;;;5.33;;
10315;SDS011;5203;48.976;8.306;2023-04-05T03:17:39;9.03;;;6.40;;
10315;SDS011;5203;48.976;8.306;2023-04-05T03:20:08;5.80;;;5.30;;
10315;SDS011;5203;48.976;8.306;2023-04-05T03:22:34;6.30;;;5.70;;
10315;SDS011;5203;48.976;8.306;2023-04-05T03:25:00;8.53;;;6.07;;
10315;SDS011;5203;48.976;8.306;2023-04-05T03:27:25;5.73;;;5.30;;
10315;SDS011;5203;48.976;8.306;2023-04-05T03:29:53;7.97;;;5.93;;
10315;SDS011;5203;48.976;8.306;2023-04-05T03:32:19;7.10;;;5.93;;
10315;SDS011;5203;48.976;8.306;2023-04-05T03:34:44;5.80;;;5.30;;
10315;SDS011;5203;48.976;8.306;2023-04-05T03:37:10;6.90;;;5.93;;
10315;SDS011;5203;48.976;8.306;2023-04-05T03:39:36;6.10;;;5.50;;
10315;SDS011;5203;48.976;8.306;2023-04-05T03:42:02;8.10;;;6.47;;
10315;SDS011;5203;48.976;8.306;2023-04-05T03:44:27;9.03;;;6.47;;
10315;SDS011;5203;48.976;8.306;2023-04-05T03:46:54;6.53;;;5.93;;
10315;SDS011;5203;48.976;8.306;2023-04-05T03:49:19;5.93;;;5.33;;
10315;SDS011;5203;48.976;8.306;2023-04-05T03:51:46;6.07;;;5.47;;
10315;SDS011;5203;48.976;8.306;2023-04-05T03:54:11;6.23;;;5.70;;
10315;SDS011;5203;48.976;8.306;2023-04-05T03:56:37;6.83;;;5.63;;
10315;SDS011;5203;48.976;8.306;2023-04-05T03:59:03;6.77;;;5.83;;
10315;SDS011;5203;48.976;8.306;2023-04-05T04:01:28;7.13;;;6.20;;
10315;SDS011;5203;48.976;8.306;2023-04-05T04:03:54;7.03;;;6.33;;
10315;SDS011;5203;48.976;8.306;2023-04-05T04:06:20;6.00;;;5.40;;
10315;SDS011;5203;48.976;8.306;2023-04-05T04:08:46;8.40;;;5.90;;
10315;SDS011;5203;48.976;8.306;2023-04-05T04:11:12;8.37;;;5.97;;
10315;SDS011;5203;48.976;8.306;2023-04-05T04:13:37;7.07;;;6.30;;
10315;SDS011;5203;48.976;8.306;2023-04-05T04:16:03;7.67;;;6.00;;
10315;SDS011;5203;48.976;8.306;2023-04-05T04:18:29;7.37;;;6.67;;
10315;SDS011;5203;48.976;8.306;2023-04-05T04:20:55;6.73;;;6.07;;
10315;SDS011;5203;48.976;8.306;2023-04-05T04:23:20;32.67;;;27.40;;
10315;SDS011;5203;48.976;8.306;2023-04-05T04:25:49;8.93;;;8.03;;
10315;SDS011;5203;48.976;8.306;2023-04-05T04:28:18;8.17;;;7.47;;
10315;SDS011;5203;48.976;8.306;2023-04-05T04:30:44;6.93;;;6.00;;
10315;SDS011;5203;48.976;8.306;2023-04-05T04:33:10;7.93;;;6.30;;
10315;SDS011;5203;48.976;8.306;2023-04-05T04:35:36;9.13;;;6.00;;
10315;SDS011;5203;48.976;8.306;2023-04-05T04:38:06;7.90;;;6.57;;
10315;SDS011;5203;48.976;8.306;2023-04-05T04:40:38;7.43;;;5.70;;
10315;SDS011;5203;48.976;8.306;2023-04-05T04:43:07;6.13;;;5.23;;
10315;SDS011;5203;48.976;8.306;2023-04-05T04:45:38;6.53;;;5.60;;
10315;SDS011;5203;48.976;8.306;2023-04-05T04:48:04;8.20;;;5.70;;
10315;SDS011;5203;48.976;8.306;2023-04-05T04:50:30;6.07;;;5.43;;
10315;SDS011;5203;48.976;8.306;2023-04-05T04:52:57;6.90;;;6.30;;
10315;SDS011;5203;48.976;8.306;2023-04-05T04:55:24;7.30;;;6.27;;
10315;SDS011;5203;48.976;8.306;2023-04-05T04:57:51;7.40;;;6.60;;
10315;SDS011;5203;48.976;8.306;2023-04-05T05:00:17;7.53;;;6.60;;
10315;SDS011;5203;48.976;8.306;2023-04-05T05:02:44;5.97;;;5.47;;
10315;SDS011;5203;48.976;8.306;2023-04-05T05:05:10;8.03;;;6.23;;
10315;SDS011;5203;48.976;8.306;2023-04-05T05:07:37;6.87;;;5.70;;
10315;SDS011;5203;48.976;8.306;2023-04-05T05:10:04;7.73;;;6.30;;
10315;SDS011;5203;48.976;8.306;2023-04-05T05:12:31;9.23;;;6.57;;
10315;SDS011;5203;48.976;8.306;2023-04-05T05:14:57;8.47;;;6.33;;
10315;SDS011;5203;48.976;8.306;2023-04-05T05:17:22;6.60;;;5.97;;
10315;SDS011;5203;48.976;8.306;2023-04-05T05:19:49;15.37;;;13.77;;
10315;SDS011;5203;48.976;8.306;2023-04-05T05:22:15;10.03;;;8.50;;
10315;SDS011;5203;48.976;8.306;2023-04-05T05:24:42;13.03;;;8.50;;
10315;SDS011;5203;48.976;8.306;2023-04-05T05:27:09;9.40;;;8.37;;
10315;SDS011;5203;48.976;8.306;2023-04-05T05:29:34;10.93;;;9.83;;
10315;SDS011;5203;48.976;8.306;2023-04-05T05:32:00;11.90;;;10.70;;
10315;SDS011;5203;48.976;8.306;2023-04-05T05:34:26;10.00;;;8.90;;
10315;SDS011;5203;48.976;8.306;2023-04-05T05:36:52;9.93;;;8.30;;
10315;SDS011;5203;48.976;8.306;2023-04-05T05:39:19;10.23;;;9.13;;
10315;SDS011;5203;48.976;8.306;2023-04-05T05:41:45;12.17;;;10.40;;
10315;SDS011;5203;48.976;8.306;2023-04-05T05:44:12;16.03;;;12.40;;
10315;SDS011;5203;48.976;8.306;2023-04-05T05:46:38;19.63;;;13.30;;
10315;SDS011;5203;48.976;8.306;2023-04-05T05:49:03;28.17;;;20.80;;
10315;SDS011;5203;48.976;8.306;2023-04-05T05:51:29;15.87;;;12.33;;
10315;SDS011;5203;48.976;8.306;2023-04-05T05:53:56;21.40;;;14.27;;
10315;SDS011;5203;48.976;8.306;2023-04-05T05:56:22;23.23;;;18.10;;
10315;SDS011;5203;48.976;8.306;2023-04-05T05:58:48;34.60;;;28.27;;
10315;SDS011;5203;48.976;8.306;2023-04-05T06:01:13;13.20;;;10.30;;
10315;SDS011;5203;48.976;8.306;2023-04-05T06:03:39;11.63;;;10.53;;
10315;SDS011;5203;48.976;8.306;2023-04-05T06:06:05;8.07;;;6.80;;
10315;SDS011;5203;48.976;8.306;2023-04-05T06:08:35;7.87;;;7.03;;
10315;SDS011;5203;48.976;8.306;2023-04-05T06:11:00;7.03;;;6.33;;
10315;SDS011;5203;48.976;8.306;2023-04-05T06:13:26;8.70;;;6.33;;
10315;SDS011;5203;48.976;8.306;2023-04-05T06:15:51;7.70;;;6.17;;
10315;SDS011;5203;48.976;8.306;2023-04-05T06:18:18;8.43;;;6.23;;
10315;SDS011;5203;48.976;8.306;2023-04-05T06:20:44;7.60;;;6.80;;
10315;SDS011;5203;48.976;8.306;2023-04-05T06:23:10;8.37;;;6.43;;
10315;SDS011;5203;48.976;8.306;2023-04-05T06:25:36;7.37;;;6.40;;
10315;SDS011;5203;48.976;8.306;2023-04-05T06:28:02;10.73;;;6.80;;
10315;SDS011;5203;48.976;8.306;2023-04-05T06:30:30;7.37;;;5.43;;
10315;SDS011;5203;48.976;8.306;2023-04-05T06:32:56;5.80;;;5.30;;
10315;SDS011;5203;48.976;8.306;2023-04-05T06:35:23;6.90;;;6.00;;
10315;SDS011;5203;48.976;8.306;2023-04-05T06:37:49;6.03;;;5.53;;
10315;SDS011;5203;48.976;8.306;2023-04-05T06:40:15;6.60;;;6.00;;
10315;SDS011;5203;48.976;8.306;2023-04-05T06:42:41;6.87;;;6.03;;
10315;SDS011;5203;48.976;8.306;2023-04-05T06:45:07;8.40;;;5.63;;
10315;SDS011;5203;48.976;8.306;2023-04-05T06:47:34;6.23;;;5.73;;
10315;SDS011;5203;48.976;8.306;2023-04-05T06:50:04;7.30;;;6.20;;
10315;SDS011;5203;48.976;8.306;2023-04-05T06:52:31;7.93;;;6.20;;
10315;SDS011;5203;48.976;8.306;2023-04-05T06:54:58;6.30;;;5.53;;
10315;SDS011;5203;48.976;8.306;2023-04-05T06:57:24;7.47;;;6.43;;
10315;SDS011;5203;48.976;8.306;2023-04-05T06:59:51;7.27;;;6.33;;
10315;SDS011;5203;48.976;8.306;2023-04-05T07:02:17;8.83;;;6.17;;
10315;SDS011;5203;48.976;8.306;2023-04-05T07:04:43;12.63;;;7.20;;
10315;SDS011;5203;48.976;8.306;2023-04-05T07:07:10;7.47;;;6.40;;
10315;SDS011;5203;48.976;8.306;2023-04-05T07:09:37;6.83;;;5.83;;
10315;SDS011;5203;48.976;8.306;2023-04-05T07:12:04;7.50;;;6.60;;
10315;SDS011;5203;48.976;8.306;2023-04-05T07:14:33;7.27;;;6.10;;
10315;SDS011;5203;48.976;8.306;2023-04-05T07:17:00;6.50;;;5.90;;
10315;SDS011;5203;48.976;8.306;2023-04-05T07:19:25;8.40;;;7.07;;
10315;SDS011;5203;48.976;8.306;2023-04-05T07:21:51;6.80;;;6.20;;
10315;SDS011;5203;48.976;8.306;2023-04-05T07:24:18;7.63;;;6.30;;
10315;SDS011;5203;48.976;8.306;2023-04-05T07:26:44;9.70;;;6.27;;
10315;SDS011;5203;48.976;8.306;2023-04-05T07:29:10;7.20;;;6.13;;
10315;SDS011;5203;48.976;8.306;2023-04-05T07:31:37;6.90;;;6.30;;
10315;SDS011;5203;48.976;8.306;2023-04-05T07:34:03;8.43;;;6.40;;
10315;SDS011;5203;48.976;8.306;2023-04-05T07:36:29;6.97;;;6.27;;
10315;SDS011;5203;48.976;8.306;2023-04-05T07:38:55;7.07;;;5.97;;
10315;SDS011;5203;48.976;8.306;2023-04-05T07:41:23;7.03;;;6.20;;
10315;SDS011;5203;48.976;8.306;2023-04-05T07:43:49;7.33;;;6.37;;
10315;SDS011;5203;48.976;8.306;2023-04-05T07:46:15;8.53;;;5.93;;
10315;SDS011;5203;48.976;8.306;2023-04-05T07:48:41;8.27;;;6.17;;
10315;SDS011;5203;48.976;8.306;2023-04-05T07:51:07;8.57;;;6.67;;
10315;SDS011;5203;48.976;8.306;2023-04-05T07:53:34;6.23;;;5.63;;
10315;SDS011;5203;48.976;8.306;2023-04-05T07:56:04;7.50;;;5.70;;
10315;SDS011;5203;48.976;8.306;2023-04-05T07:58:30;7.03;;;6.00;;
10315;SDS011;5203;48.976;8.306;2023-04-05T08:01:03;8.90;;;5.57;;
10315;SDS011;5203;48.976;8.306;2023-04-05T08:03:29;7.73;;;6.10;;
10315;SDS011;5203;48.976;8.306;2023-04-05T08:05:55;7.00;;;6.30;;
10315;SDS011;5203;48.976;8.306;2023-04-05T08:08:22;6.90;;;5.83;;
10315;SDS011;5203;48.976;8.306;2023-04-05T08:10:49;6.53;;;5.93;;
10315;SDS011;5203;48.976;8.306;2023-04-05T08:13:15;6.33;;;5.73;;
10315;SDS011;5203;48.976;8.306;2023-04-05T08:15:40;8.00;;;6.03;;
10315;SDS011;5203;48.976;8.306;2023-04-05T08:18:06;6.20;;;5.60;;
10315;SDS011;5203;48.976;8.306;2023-04-05T08:20:32;6.57;;;5.97;;
10315;SDS011;5203;48.976;8.306;2023-04-05T08:23:03;7.83;;;6.00;;
10315;SDS011;5203;48.976;8.306;2023-04-05T08:25:29;6.63;;;5.90;;
10315;SDS011;5203;48.976;8.306;2023-04-05T08:27:55;6.37;;;5.67;;
10315;SDS011;5203;48.976;8.306;2023-04-05T08:30:20;7.33;;;6.13;;
10315;SDS011;5203;48.976;8.306;2023-04-05T08:32:47;6.07;;;5.27;;
10315;SDS011;5203;48.976;8.306;2023-04-05T08:35:13;6.90;;;5.70;;
10315;SDS011;5203;48.976;8.306;2023-04-05T08:37:39;7.57;;;5.23;;
10315;SDS011;5203;48.976;8.306;2023-04-05T08:40:05;6.20;;;5.60;;
10315;SDS011;5203;48.976;8.306;2023-04-05T08:42:36;6.73;;;5.63;;
10315;SDS011;5203;48.976;8.306;2023-04-05T08:45:08;6.87;;;5.47;;
10315;SDS011;5203;48.976;8.306;2023-04-05T08:47:35;7.17;;;5.60;;
10315;SDS011;5203;48.976;8.306;2023-04-05T08:50:03;6.23;;;5.63;;
10315;SDS011;5203;48.976;8.306;2023-04-05T08:52:32;6.30;;;5.53;;
10315;SDS011;5203;48.976;8.306;2023-04-05T08:55:04;6.70;;;5.90;;
10315;SDS011;5203;48.976;8.306;2023-04-05T08:57:30;6.50;;;5.90;;
10315;SDS011;5203;48.976;8.306;2023-04-05T08:59:58;7.53;;;5.87;;
10315;SDS011;5203;48.976;8.306;2023-04-05T09:02:27;10.10;;;5.77;;
10315;SDS011;5203;48.976;8.306;2023-04-05T09:04:53;6.60;;;5.87;;
10315;SDS011;5203;48.976;8.306;2023-04-05T09:07:20;6.07;;;5.43;;
10315;SDS011;5203;48.976;8.306;2023-04-05T09:09:48;6.60;;;6.00;;
10315;SDS011;5203;48.976;8.306;2023-04-05T09:12:19;5.87;;;5.10;;
10315;SDS011;5203;48.976;8.306;2023-04-05T09:14:46;7.40;;;6.00;;
10315;SDS011;5203;48.976;8.306;2023-04-05T09:17:14;8.03;;;7.23;;
10315;SDS011;5203;48.976;8.306;2023-04-05T09:19:42;9.37;;;5.40;;
10315;SDS011;5203;48.976;8.306;2023-04-05T09:22:09;6.60;;;5.63;;
10315;SDS011;5203;48.976;8.306;2023-04-05T09:27:13;6.03;;;5.37;;
10315;SDS011;5203;48.976;8.306;2023-04-05T09:29:46;6.03;;;5.40;;
10315;SDS011;5203;48.976;8.306;2023-04-05T09:32:14;8.63;;;6.17;;
10315;SDS011;5203;48.976;8.306;2023-04-05T09:34:42;7.37;;;6.00;;
10315;SDS011;5203;48.976;8.306;2023-04-05T09:39:41;7.70;;;5.47;;
10315;SDS011;5203;48.976;8.306;2023-04-05T09:42:12;6.27;;;5.63;;
10315;SDS011;5203;48.976;8.306;2023-04-05T09:47:25;8.03;;;5.77;;
10315;SDS011;5203;48.976;8.306;2023-04-05T09:49:55;6.33;;;5.73;;
10315;SDS011;5203;48.976;8.306;2023-04-05T09:54:55;6.43;;;5.77;;
10315;SDS011;5203;48.976;8.306;2023-04-05T09:57:25;6.83;;;5.77;;
10315;SDS011;5203;48.976;8.306;2023-04-05T09:59:53;5.83;;;5.23;;
10315;SDS011;5203;48.976;8.306;2023-04-05T10:02:20;6.80;;;5.53;;
10315;SDS011;5203;48.976;8.306;2023-04-05T10:04:46;6.93;;;6.13;;
10315;SDS011;5203;48.976;8.306;2023-04-05T10:07:14;6.63;;;6.00;;
10315;SDS011;5203;48.976;8.306;2023-04-05T10:09:41;8.30;;;5.90;;
10315;SDS011;5203;48.976;8.306;2023-04-05T10:12:09;6.13;;;5.63;;
10315;SDS011;5203;48.976;8.306;2023-04-05T10:14:38;6.20;;;5.60;;
10315;SDS011;5203;48.976;8.306;2023-04-05T10:27:54;7.73;;;6.27;;
10315;SDS011;5203;48.976;8.306;2023-04-05T10:30:46;10.70;;;6.87;;
10315;SDS011;5203;48.976;8.306;2023-04-05T10:33:17;6.77;;;6.17;;
10315;SDS011;5203;48.976;8.306;2023-04-05T10:35:54;7.53;;;6.83;;
10315;SDS011;5203;48.976;8.306;2023-04-05T10:38:24;6.93;;;6.23;;
10315;SDS011;5203;48.976;8.306;2023-04-05T10:40:56;6.60;;;6.10;;
10315;SDS011;5203;48.976;8.306;2023-04-05T10:43:40;8.13;;;6.50;;
10315;SDS011;5203;48.976;8.306;2023-04-05T10:46:07;7.03;;;5.77;;
10315;SDS011;5203;48.976;8.306;2023-04-05T10:51:30;7.07;;;6.40;;
10315;SDS011;5203;48.976;8.306;2023-04-05T10:53:58;8.13;;;6.37;;
10315;SDS011;5203;48.976;8.306;2023-04-05T10:56:25;6.63;;;6.00;;
10315;SDS011;5203;48.976;8.306;2023-04-05T10:58:52;6.50;;;6.00;;
10315;SDS011;5203;48.976;8.306;2023-04-05T11:01:19;8.07;;;6.90;;
10315;SDS011;5203;48.976;8.306;2023-04-05T11:03:46;6.83;;;5.77;;
10315;SDS011;5203;48.976;8.306;2023-04-05T11:09:15;6.63;;;6.13;;
10315;SDS011;5203;48.976;8.306;2023-04-05T11:11:41;7.27;;;6.57;;
10315;SDS011;5203;48.976;8.306;2023-04-05T11:14:33;7.40;;;6.70;;
10315;SDS011;5203;48.976;8.306;2023-04-05T11:17:01;6.80;;;6.10;;
10315;SDS011;5203;48.976;8.306;2023-04-05T11:22:11;7.50;;;5.97;;
10315;SDS011;5203;48.976;8.306;2023-04-05T11:24:51;6.60;;;6.00;;
10315;SDS011;5203;48.976;8.306;2023-04-05T11:27:27;7.13;;;6.27;;
10315;SDS011;5203;48.976;8.306;2023-04-05T11:29:54;7.00;;;6.30;;
10315;SDS011;5203;48.976;8.306;2023-04-05T11:32:36;6.43;;;5.93;;
10315;SDS011;5203;48.976;8.306;2023-04-05T11:35:16;7.30;;;6.60;;
10315;SDS011;5203;48.976;8.306;2023-04-05T11:40:31;8.97;;;7.10;;
10315;SDS011;5203;48.976;8.306;2023-04-05T11:43:00;7.43;;;6.83;;
10315;SDS011;5203;48.976;8.306;2023-04-05T11:45:26;6.77;;;6.17;;
10315;SDS011;5203;48.976;8.306;2023-04-05T11:47:54;7.67;;;6.93;;
10315;SDS011;5203;48.976;8.306;2023-04-05T11:50:20;7.20;;;6.50;;
10315;SDS011;5203;48.976;8.306;2023-04-05T11:53:06;8.03;;;7.20;;
10315;SDS011;5203;48.976;8.306;2023-04-05T11:55:33;7.93;;;7.20;;
10315;SDS011;5203;48.976;8.306;2023-04-05T11:57:59;6.67;;;6.17;;
10315;SDS011;5203;48.976;8.306;2023-04-05T12:00:25;6.97;;;6.37;;
10315;SDS011;5203;48.976;8.306;2023-04-05T12:02:54;6.97;;;6.40;;
10315;SDS011;5203;48.976;8.306;2023-04-05T12:05:20;6.90;;;6.33;;
10315;SDS011;5203;48.976;8.306;2023-04-05T12:07:50;9.30;;;8.50;;
10315;SDS011;5203;48.976;8.306;2023-04-05T12:10:18;7.17;;;6.57;;
10315;SDS011;5203;48.976;8.306;2023-04-05T12:12:45;7.83;;;6.80;;
10315;SDS011;5203;48.976;8.306;2023-04-05T12:15:14;7.73;;;7.03;;
10315;SDS011;5203;48.976;8.306;2023-04-05T12:17:49;10.97;;;10.13;;
10315;SDS011;5203;48.976;8.306;2023-04-05T12:20:18;7.33;;;6.83;;
10315;SDS011;5203;48.976;8.306;2023-04-05T12:22:49;11.83;;;10.67;;
10315;SDS011;5203;48.976;8.306;2023-04-05T12:25:20;7.60;;;7.07;;
10315;SDS011;5203;48.976;8.306;2023-04-05T12:27:46;7.57;;;6.93;;
10315;SDS011;5203;48.976;8.306;2023-04-05T12:32:40;7.80;;;7.10;;
10315;SDS011;5203;48.976;8.306;2023-04-05T12:35:23;11.83;;;10.83;;
10315;SDS011;5203;48.976;8.306;2023-04-05T12:37:59;8.17;;;7.57;;
10315;SDS011;5203;48.976;8.306;2023-04-05T12:40:27;7.90;;;7.40;;
10315;SDS011;5203;48.976;8.306;2023-04-05T12:42:59;9.07;;;8.37;;
10315;SDS011;5203;48.976;8.306;2023-04-05T12:45:28;8.20;;;7.50;;
10315;SDS011;5203;48.976;8.306;2023-04-05T12:47:57;8.27;;;7.57;;
10315;SDS011;5203;48.976;8.306;2023-04-05T12:50:24;7.83;;;7.23;;
10315;SDS011;5203;48.976;8.306;2023-04-05T12:55:17;8.07;;;7.37;;
10315;SDS011;5203;48.976;8.306;2023-04-05T12:57:45;9.17;;;8.37;;
10315;SDS011;5203;48.976;8.306;2023-04-05T13:00:14;12.30;;;11.50;;
10315;SDS011;5203;48.976;8.306;2023-04-05T13:02:40;7.23;;;6.73;;
10315;SDS011;5203;48.976;8.306;2023-04-05T13:05:06;7.30;;;6.80;;
10315;SDS011;5203;48.976;8.306;2023-04-05T13:07:31;6.93;;;6.43;;
10315;SDS011;5203;48.976;8.306;2023-04-05T13:09:57;7.83;;;7.23;;
10315;SDS011;5203;48.976;8.306;2023-04-05T13:12:23;7.53;;;6.67;;
10315;SDS011;5203;48.976;8.306;2023-04-05T13:14:48;7.50;;;6.80;;
10315;SDS011;5203;48.976;8.306;2023-04-05T13:17:14;7.60;;;7.10;;
10315;SDS011;5203;48.976;8.306;2023-04-05T13:19:40;8.67;;;7.97;;
10315;SDS011;5203;48.976;8.306;2023-04-05T13:22:05;8.23;;;7.63;;
10315;SDS011;5203;48.976;8.306;2023-04-05T13:24:31;9.82;;;9.23;;
10315;SDS011;5203;48.976;8.306;2023-04-05T13:26:57;9.32;;;8.68;;
10315;SDS011;5203;48.976;8.306;2023-04-05T13:29:22;8.82;;;8.23;;
10315;SDS011;5203;48.976;8.306;2023-04-05T13:31:48;9.85;;;9.25;;
10315;SDS011;5203;48.976;8.306;2023-04-05T13:34:13;10.27;;;9.68;;
10315;SDS011;5203;48.976;8.306;2023-04-05T13:36:39;10.43;;;9.82;;
10315;SDS011;5203;48.976;8.306;2023-04-05T13:39:05;10.03;;;9.33;;
10315;SDS011;5203;48.976;8.306;2023-04-05T13:41:30;10.00;;;9.38;;
10315;SDS011;5203;48.976;8.306;2023-04-05T13:43:56;9.50;;;8.82;;
10315;SDS011;5203;48.976;8.306;2023-04-05T13:46:22;9.70;;;9.10;;
10315;SDS011;5203;48.976;8.306;2023-04-05T13:48:47;12.23;;;11.37;;
10315;SDS011;5203;48.976;8.306;2023-04-05T13:51:13;12.70;;;11.88;;
10315;SDS011;5203;48.976;8.306;2023-04-05T13:53:40;11.10;;;10.40;;
10315;SDS011;5203;48.976;8.306;2023-04-05T13:56:06;9.77;;;9.27;;
10315;SDS011;5203;48.976;8.306;2023-04-05T13:58:31;11.85;;;11.25;;
10315;SDS011;5203;48.976;8.306;2023-04-05T14:00:57;10.60;;;9.98;;
10315;SDS011;5203;48.976;8.306;2023-04-05T14:03:23;11.15;;;10.45;;
10315;SDS011;5203;48.976;8.306;2023-04-05T14:05:49;11.48;;;10.68;;
10315;SDS011;5203;48.976;8.306;2023-04-05T14:08:15;11.15;;;10.40;;
10315;SDS011;5203;48.976;8.306;2023-04-05T14:10:41;10.05;;;9.55;;
10315;SDS011;5203;48.976;8.306;2023-04-05T14:13:07;11.48;;;10.77;;
10315;SDS011;5203;48.976;8.306;2023-04-05T14:15:32;10.90;;;10.20;;
10315;SDS011;5203;48.976;8.306;2023-04-05T14:17:59;9.82;;;9.32;;
10315;SDS011;5203;48.976;8.306;2023-04-05T14:20:25;10.82;;;10.23;;
10315;SDS011;5203;48.976;8.306;2023-04-05T14:22:51;11.05;;;10.43;;
10315;SDS011;5203;48.976;8.306;2023-04-05T14:25:17;11.40;;;10.80;;
10315;SDS011;5203;48.976;8.306;2023-04-05T14:27:42;10.68;;;9.98;;
10315;SDS011;5203;48.976;8.306;2023-04-05T14:30:08;10.75;;;10.02;;
10315;SDS011;5203;48.976;8.306;2023-04-05T14:32:35;10.40;;;9.90;;
10315;SDS011;5203;48.976;8.306;2023-04-05T14:35:00;11.32;;;10.73;;
10315;SDS011;5203;48.976;8.306;2023-04-05T14:37:26;11.40;;;10.70;;
10315;SDS011;5203;48.976;8.306;2023-04-05T14:39:52;10.75;;;10.15;;
10315;SDS011;5203;48.976;8.306;2023-04-05T14:42:18;11.93;;;11.23;;
10315;SDS011;5203;48.976;8.306;2023-04-05T14:44:45;11.75;;;11.05;;
10315;SDS011;5203;48.976;8.306;2023-04-05T14:47:11;11.80;;;11.00;;
10315;SDS011;5203;48.976;8.306;2023-04-05T14:49:36;33.95;;;20.73;;
10315;SDS011;5203;48.976;8.306;2023-04-05T14:52:02;12.50;;;11.70;;
10315;SDS011;5203;48.976;8.306;2023-04-05T14:54:28;11.40;;;10.77;;
10315;SDS011;5203;48.976;8.306;2023-04-05T14:56:54;11.50;;;10.90;;
10315;SDS011;5203;48.976;8.306;2023-04-05T14:59:19;11.82;;;11.23;;
10315;SDS011;5203;48.976;8.306;2023-04-05T15:01:45;11.55;;;10.88;;
10315;SDS011;5203;48.976;8.306;2023-04-05T15:04:11;11.45;;;10.75;;
10315;SDS011;5203;48.976;8.306;2023-04-05T15:06:37;12.23;;;11.57;;
10315;SDS011;5203;48.976;8.306;2023-04-05T15:09:03;13.30;;;12.40;;
10315;SDS011;5203;48.976;8.306;2023-04-05T15:11:29;14.10;;;13.05;;
10315;SDS011;5203;48.976;8.306;2023-04-05T15:13:58;13.10;;;12.40;;
10315;SDS011;5203;48.976;8.306;2023-04-05T15:16:23;13.45;;;12.75;;
10315;SDS011;5203;48.976;8.306;2023-04-05T15:18:49;13.38;;;12.75;;
10315;SDS011;5203;48.976;8.306;2023-04-05T15:21:15;12.70;;;12.00;;
10315;SDS011;5203;48.976;8.306;2023-04-05T15:23:41;13.45;;;12.75;;
10315;SDS011;5203;48.976;8.306;2023-04-05T15:26:07;12.60;;;11.90;;
10315;SDS011;5203;48.976;8.306;2023-04-05T15:28:33;13.23;;;12.57;;
10315;SDS011;5203;48.976;8.306;2023-04-05T15:30:58;12.90;;;12.20;;
10315;SDS011;5203;48.976;8.306;2023-04-05T15:33:24;13.55;;;12.82;;
10315;SDS011;5203;48.976;8.306;2023-04-05T15:35:50;13.82;;;13.00;;
10315;SDS011;5203;48.976;8.306;2023-04-05T15:38:15;12.90;;;12.30;;
10315;SDS011;5203;48.976;8.306;2023-04-05T15:40:41;13.70;;;12.90;;
10315;SDS011;5203;48.976;8.306;2023-04-05T15:43:11;20.67;;;16.20;;
10315;SDS011;5203;48.976;8.306;2023-04-05T15:45:36;13.07;;;12.38;;
10315;SDS011;5203;48.976;8.306;2023-04-05T15:48:02;13.43;;;12.50;;